createdAt,value
2024-04-25T00:00:09.719Z,95.81
2024-04-25T00:02:36.592Z,95.90
2024-04-25T00:05:03.444Z,95.89
2024-04-25T00:07:29.970Z,95.68
2024-04-25T00:09:56.431Z,95.32
2024-04-25T00:12:23.354Z,95.32
2024-04-25T00:14:49.856Z,95.06
2024-04-25T00:17:17.947Z,95.24
2024-04-25T00:19:44.808Z,95.05
2024-04-25T00:22:11.431Z,95.66
2024-04-25T00:24:38.096Z,95.71
2024-04-25T00:27:04.803Z,95.52
2024-04-25T00:29:31.334Z,95.49
2024-04-25T00:31:58.377Z,95.04
2024-04-25T00:34:24.919Z,95.25
2024-04-25T00:36:51.474Z,95.59
2024-04-25T00:39:17.976Z,95.61
2024-04-25T00:41:44.580Z,95.38
2024-04-25T00:44:11.104Z,95.68
2024-04-25T00:46:40.468Z,95.77
2024-04-25T00:49:10.561Z,95.61
2024-04-25T00:51:38.615Z,95.68
2024-04-25T00:54:05.540Z,95.32
2024-04-25T00:56:33.497Z,95.61
2024-04-25T00:59:02.343Z,95.50
2024-04-25T01:01:30.895Z,95.65
2024-04-25T01:04:01.664Z,95.58
2024-04-25T01:06:33.855Z,95.97
2024-04-25T01:09:01.226Z,96.33
2024-04-25T01:11:28.957Z,96.59
2024-04-25T01:13:56.015Z,96.49
2024-04-25T01:16:22.503Z,96.97
2024-04-25T01:18:49.079Z,97.83
2024-04-25T01:21:15.680Z,97.95
2024-04-25T01:23:44.895Z,98.07
2024-04-25T01:26:12.831Z,98.05
2024-04-25T01:28:41.298Z,98.27
2024-04-25T01:31:08.654Z,98.46
2024-04-25T01:33:37.942Z,98.67
2024-04-25T01:36:04.851Z,98.90
2024-04-25T01:38:31.341Z,99.29
2024-04-25T01:40:57.807Z,99.72
2024-04-25T01:43:27.929Z,99.84
2024-04-25T01:45:54.414Z,99.54
2024-04-25T01:48:20.994Z,99.63
2024-04-25T01:51:16.576Z,99.92
2024-04-25T01:53:43.274Z,99.75
2024-04-25T01:56:10.091Z,100.00
2024-04-25T01:58:36.608Z,100.00
2024-04-25T02:01:03.303Z,100.00
2024-04-25T02:03:30.037Z,100.00
2024-04-25T02:05:56.545Z,100.00
2024-04-25T02:08:23.402Z,100.00
2024-04-25T02:10:51.512Z,100.00
2024-04-25T02:13:18.455Z,100.00
2024-04-25T02:15:45.107Z,100.00
2024-04-25T02:18:11.790Z,100.00
2024-04-25T02:20:57.084Z,100.00
2024-04-25T02:23:42.238Z,100.00
2024-04-25T02:26:10.561Z,100.00
2024-04-25T02:28:37.977Z,100.00
2024-04-25T02:31:04.601Z,100.00
2024-04-25T02:33:31.236Z,100.00
2024-04-25T02:35:58.042Z,100.00
2024-04-25T02:38:24.566Z,100.00
2024-04-25T02:40:51.053Z,100.00
2024-04-25T02:43:17.614Z,100.00
2024-04-25T02:45:44.461Z,100.00
2024-04-25T02:48:11.067Z,100.00
2024-04-25T02:50:37.888Z,100.00
2024-04-25T02:53:04.702Z,100.00
2024-04-25T02:55:33.316Z,100.00
2024-04-25T02:58:00.915Z,100.00
2024-04-25T03:00:27.388Z,100.00
2024-04-25T03:02:54.025Z,100.00
2024-04-25T03:05:20.707Z,100.00
2024-04-25T03:07:47.204Z,100.00
2024-04-25T03:10:13.668Z,100.00
2024-04-25T03:12:40.348Z,100.00
2024-04-25T03:15:07.058Z,100.00
2024-04-25T03:17:33.709Z,100.00
2024-04-25T03:20:01.525Z,100.00
2024-04-25T03:22:28.046Z,100.00
2024-04-25T03:24:54.507Z,100.00
2024-04-25T03:27:21.030Z,100.00
2024-04-25T03:29:47.519Z,100.00
2024-04-25T03:32:14.090Z,100.00
2024-04-25T03:34:40.912Z,100.00
2024-04-25T03:37:07.432Z,100.00
2024-04-25T03:39:33.966Z,100.00
2024-04-25T03:42:00.566Z,100.00
2024-04-25T03:44:27.552Z,100.00
2024-04-25T03:46:54.084Z,100.00
2024-04-25T03:49:20.631Z,100.00
2024-04-25T03:51:47.150Z,100.00
2024-04-25T03:54:14.636Z,100.00
2024-04-25T03:56:41.341Z,100.00
2024-04-25T03:59:07.984Z,100.00
2024-04-25T04:01:34.552Z,100.00
2024-04-25T04:04:01.199Z,100.00
2024-04-25T04:06:27.724Z,100.00
2024-04-25T04:08:54.343Z,100.00
2024-04-25T04:11:20.834Z,100.00
2024-04-25T04:13:47.416Z,100.00
2024-04-25T04:16:14.514Z,100.00
2024-04-25T04:18:42.328Z,100.00
2024-04-25T04:21:10.596Z,100.00
2024-04-25T04:23:39.266Z,100.00
2024-04-25T04:26:05.782Z,100.00
2024-04-25T04:28:32.301Z,100.00
2024-04-25T04:30:58.896Z,100.00
2024-04-25T04:33:26.107Z,100.00
2024-04-25T04:35:53.044Z,100.00
2024-04-25T04:38:19.591Z,100.00
2024-04-25T04:40:46.195Z,100.00
2024-04-25T04:43:12.782Z,100.00
2024-04-25T04:45:42.013Z,100.00
2024-04-25T04:48:15.772Z,100.00
2024-04-25T04:50:46.305Z,100.00
2024-04-25T04:53:12.924Z,100.00
2024-04-25T04:55:42.030Z,100.00
2024-04-25T04:58:09.716Z,100.00
2024-04-25T05:00:36.601Z,100.00
2024-04-25T05:03:03.374Z,100.00
2024-04-25T05:05:30.219Z,100.00
2024-04-25T05:08:00.315Z,100.00
2024-04-25T05:10:27.465Z,100.00
2024-04-25T05:12:55.674Z,100.00
2024-04-25T05:15:22.240Z,100.00
2024-04-25T05:17:48.967Z,100.00
2024-04-25T05:20:15.824Z,100.00
2024-04-25T05:22:42.445Z,100.00
2024-04-25T05:25:08.966Z,100.00
2024-04-25T05:27:37.919Z,100.00
2024-04-25T05:30:05.587Z,100.00
2024-04-25T05:32:32.421Z,100.00
2024-04-25T05:35:02.112Z,100.00
2024-04-25T05:37:30.570Z,100.00
2024-04-25T05:39:57.097Z,100.00
2024-04-25T05:42:47.392Z,100.00
2024-04-25T05:45:13.975Z,100.00
2024-04-25T05:47:40.704Z,100.00
2024-04-25T05:50:09.536Z,100.00
2024-04-25T05:52:36.575Z,100.00
2024-04-25T05:55:03.658Z,100.00
2024-04-25T05:57:30.628Z,100.00
2024-04-25T05:59:57.183Z,100.00
2024-04-25T06:02:26.053Z,100.00
2024-04-25T06:04:56.273Z,100.00
2024-04-25T06:07:22.757Z,100.00
2024-04-25T06:09:50.056Z,100.00
2024-04-25T06:12:16.883Z,100.00
2024-04-25T06:14:43.743Z,100.00
2024-04-25T06:17:12.450Z,100.00
2024-04-25T06:19:39.429Z,100.00
2024-04-25T06:22:05.995Z,100.00
2024-04-25T06:24:32.532Z,100.00
2024-04-25T06:26:59.193Z,100.00
2024-04-25T06:29:25.799Z,100.00
2024-04-25T06:31:52.409Z,100.00
2024-04-25T06:34:18.970Z,100.00
2024-04-25T06:36:48.183Z,100.00
2024-04-25T06:39:14.851Z,100.00
2024-04-25T06:41:47.125Z,100.00
2024-04-25T06:44:29.042Z,100.00
2024-04-25T06:46:59.079Z,100.00
2024-04-25T06:49:26.185Z,100.00
2024-04-25T06:51:52.842Z,100.00
2024-04-25T06:54:19.455Z,100.00
2024-04-25T06:56:46.102Z,100.00
2024-04-25T06:59:12.720Z,99.50
2024-04-25T07:01:39.410Z,97.75
2024-04-25T07:04:06.027Z,97.80
2024-04-25T07:06:32.758Z,97.56
2024-04-25T07:09:03.019Z,97.66
2024-04-25T07:11:30.102Z,98.10
2024-04-25T07:13:56.705Z,97.25
2024-04-25T07:16:23.334Z,97.24
2024-04-25T07:18:50.000Z,97.45
2024-04-25T07:21:16.561Z,97.03
2024-04-25T07:23:43.742Z,97.27
2024-04-25T07:26:10.313Z,97.28
2024-04-25T07:28:37.824Z,96.94
2024-04-25T07:31:05.435Z,97.24
2024-04-25T07:33:33.327Z,96.86
2024-04-25T07:36:00.079Z,96.67
2024-04-25T07:38:27.114Z,96.38
2024-04-25T07:40:53.668Z,96.18
2024-04-25T07:43:20.351Z,95.87
2024-04-25T07:45:47.514Z,95.58
2024-04-25T07:48:14.300Z,94.96
2024-04-25T07:50:40.996Z,94.65
2024-04-25T07:53:07.615Z,94.08
2024-04-25T07:55:34.069Z,93.97
2024-04-25T07:58:00.710Z,93.76
2024-04-25T08:00:27.241Z,93.38
2024-04-25T08:02:54.865Z,93.51
2024-04-25T08:05:21.479Z,93.88
2024-04-25T08:07:48.210Z,94.80
2024-04-25T08:10:14.665Z,94.79
2024-04-25T08:12:42.099Z,92.98
2024-04-25T08:15:08.635Z,92.05
2024-04-25T08:17:35.441Z,91.94
2024-04-25T08:20:01.997Z,92.24
2024-04-25T08:22:31.503Z,92.67
2024-04-25T08:24:57.960Z,92.69
2024-04-25T08:27:24.451Z,92.33
2024-04-25T08:29:51.135Z,92.06
2024-04-25T08:32:20.252Z,91.59
2024-04-25T08:34:48.535Z,90.88
2024-04-25T08:37:15.121Z,91.57
2024-04-25T08:39:42.175Z,91.59
2024-04-25T08:42:12.189Z,91.33
2024-04-25T08:44:40.573Z,91.09
2024-04-25T08:47:09.609Z,91.14
2024-04-25T08:49:38.129Z,91.12
2024-04-25T08:52:06.480Z,90.19
2024-04-25T08:54:33.481Z,90.12
2024-04-25T08:57:00.120Z,91.25
2024-04-25T08:59:26.867Z,90.80
2024-04-25T09:01:54.919Z,90.32
2024-04-25T09:04:26.756Z,89.70
2024-04-25T09:06:53.626Z,88.89
2024-04-25T09:09:25.241Z,88.87
2024-04-25T09:11:55.098Z,88.46
2024-04-25T09:14:25.086Z,88.25
2024-04-25T09:16:51.765Z,87.98
2024-04-25T09:19:18.505Z,87.08
2024-04-25T09:21:45.108Z,86.55
2024-04-25T09:24:12.180Z,87.22
2024-04-25T09:26:39.232Z,86.52
2024-04-25T09:29:05.769Z,85.12
2024-04-25T09:31:33.099Z,84.09
2024-04-25T09:33:59.954Z,83.93
2024-04-25T09:36:27.275Z,84.13
2024-04-25T09:38:54.076Z,82.16
2024-04-25T09:41:21.846Z,79.24
2024-04-25T09:43:49.396Z,77.69
2024-04-25T09:46:23.937Z,77.84
2024-04-25T09:48:55.082Z,78.02
2024-04-25T09:51:37.462Z,77.51
2024-04-25T09:54:11.225Z,76.63
2024-04-25T09:56:38.733Z,76.23
2024-04-25T09:59:11.906Z,75.30
2024-04-25T10:01:40.202Z,75.30
2024-04-25T10:04:07.279Z,74.53
2024-04-25T10:06:34.570Z,73.19
2024-04-25T10:09:01.381Z,73.41
2024-04-25T10:11:31.084Z,72.71
2024-04-25T10:13:57.772Z,70.29
2024-04-25T10:16:24.284Z,70.04
2024-04-25T10:18:51.636Z,69.88
2024-04-25T10:21:18.782Z,67.45
2024-04-25T10:23:45.348Z,68.00
2024-04-25T10:26:19.799Z,68.74
2024-04-25T10:29:05.383Z,68.90
2024-04-25T10:31:36.740Z,69.15
2024-04-25T10:34:07.670Z,68.73
2024-04-25T10:36:36.222Z,69.01
2024-04-25T10:39:08.361Z,69.87
2024-04-25T10:41:40.600Z,70.76
2024-04-25T10:44:08.694Z,70.31
2024-04-25T10:46:39.270Z,70.09
2024-04-25T10:49:06.856Z,71.06
2024-04-25T10:51:33.892Z,71.12
2024-04-25T10:54:16.405Z,71.55
2024-04-25T10:56:43.324Z,72.28
2024-04-25T10:59:10.090Z,72.50
2024-04-25T11:01:36.596Z,72.91
2024-04-25T11:04:07.191Z,72.40
2024-04-25T11:06:38.012Z,71.95
2024-04-25T11:09:10.548Z,70.79
2024-04-25T11:11:38.433Z,69.71
2024-04-25T11:14:05.014Z,69.67
2024-04-25T11:16:38.063Z,68.93
2024-04-25T11:19:13.665Z,67.99
2024-04-25T11:21:48.708Z,67.49
2024-04-25T11:24:17.859Z,68.08
2024-04-25T11:26:48.599Z,68.15
2024-04-25T11:29:15.443Z,67.83
2024-04-25T11:31:42.072Z,66.54
2024-04-25T11:34:22.538Z,64.89
2024-04-25T11:37:02.869Z,63.76
2024-04-25T11:39:31.424Z,63.66
2024-04-25T11:42:02.178Z,62.21
2024-04-25T11:44:30.588Z,62.42
2024-04-25T11:46:58.022Z,61.67
2024-04-25T11:49:25.601Z,62.51
2024-04-25T11:51:52.062Z,62.86
2024-04-25T11:54:18.632Z,62.66
2024-04-25T11:56:45.279Z,63.45
2024-04-25T11:59:11.933Z,63.27
2024-04-25T12:01:38.561Z,63.34
2024-04-25T12:04:09.247Z,62.15
2024-04-25T12:06:35.988Z,62.66
2024-04-25T12:09:02.603Z,62.95
2024-04-25T12:11:30.720Z,63.04
2024-04-25T12:13:57.263Z,62.80
2024-04-25T12:16:23.954Z,62.60
2024-04-25T12:18:50.431Z,61.29
2024-04-25T12:21:17.091Z,61.95
2024-04-25T12:23:43.672Z,61.37
2024-04-25T12:26:10.349Z,61.60
2024-04-25T12:28:36.946Z,60.93
2024-04-25T12:31:04.691Z,61.11
2024-04-25T12:33:32.503Z,61.82
2024-04-25T12:35:59.156Z,62.56
2024-04-25T12:38:25.935Z,63.36
2024-04-25T12:40:52.807Z,63.33
2024-04-25T12:43:19.326Z,63.26
2024-04-25T12:45:50.815Z,63.15
2024-04-25T12:48:17.776Z,63.28
2024-04-25T12:50:44.573Z,63.52
2024-04-25T12:53:14.387Z,63.42
2024-04-25T12:55:41.173Z,63.57
2024-04-25T12:58:07.836Z,63.90
2024-04-25T13:00:34.582Z,61.77
2024-04-25T13:03:01.322Z,60.63
2024-04-25T13:05:28.181Z,60.23
2024-04-25T13:07:55.005Z,59.12
2024-04-25T13:10:21.588Z,57.08
2024-04-25T13:12:49.322Z,57.07
2024-04-25T13:15:16.107Z,56.31
2024-04-25T13:17:42.790Z,56.28
2024-04-25T13:20:11.258Z,55.48
2024-04-25T13:22:37.744Z,55.70
2024-04-25T13:25:04.661Z,56.16
2024-04-25T13:27:31.556Z,56.02
2024-04-25T13:29:58.255Z,55.40
2024-04-25T13:32:27.352Z,55.18
2024-04-25T13:34:56.117Z,55.26
2024-04-25T13:37:22.673Z,55.41
2024-04-25T13:39:53.940Z,55.53
2024-04-25T13:42:20.858Z,55.88
2024-04-25T13:44:47.393Z,55.88
2024-04-25T13:47:13.941Z,56.36
2024-04-25T13:49:40.722Z,56.51
2024-04-25T13:52:07.169Z,56.18
2024-04-25T13:54:35.107Z,56.51
2024-04-25T13:57:04.075Z,56.86
2024-04-25T13:59:30.779Z,57.32
2024-04-25T14:01:57.394Z,57.42
2024-04-25T14:04:24.893Z,57.79
2024-04-25T14:06:53.970Z,57.67
2024-04-25T14:09:21.605Z,57.86
2024-04-25T14:11:48.299Z,57.31
2024-04-25T14:14:16.901Z,57.61
2024-04-25T14:16:43.422Z,58.41
2024-04-25T14:19:10.681Z,58.91
2024-04-25T14:21:37.168Z,58.70
2024-04-25T14:24:03.800Z,58.75
2024-04-25T14:26:49.165Z,58.94
2024-04-25T14:29:16.071Z,59.10
2024-04-25T14:31:42.573Z,58.10
2024-04-25T14:34:09.442Z,58.08
2024-04-25T14:36:36.055Z,56.73
2024-04-25T14:39:02.640Z,55.44
2024-04-25T14:41:29.222Z,55.18
2024-04-25T14:43:58.666Z,53.86
2024-04-25T14:46:26.512Z,53.31
2024-04-25T14:48:53.360Z,53.83
2024-04-25T14:51:19.964Z,53.39
2024-04-25T14:53:46.848Z,52.78
2024-04-25T14:56:13.573Z,51.32
2024-04-25T14:58:40.235Z,50.84
2024-04-25T15:01:06.892Z,49.75
2024-04-25T15:03:34.554Z,48.79
2024-04-25T15:06:01.200Z,48.54
2024-04-25T15:08:27.724Z,48.75
2024-04-25T15:10:54.318Z,48.96
2024-04-25T15:13:21.617Z,49.41
2024-04-25T15:15:49.797Z,49.12
2024-04-25T15:18:17.822Z,49.27
2024-04-25T15:20:44.700Z,49.39
2024-04-25T15:23:11.262Z,50.11
2024-04-25T15:25:37.890Z,49.94
2024-04-25T15:28:04.621Z,49.94
2024-04-25T15:30:32.180Z,50.42
2024-04-25T15:32:59.011Z,50.85
2024-04-25T15:35:25.604Z,50.89
2024-04-25T15:37:52.187Z,50.52
2024-04-25T15:40:18.766Z,50.81
2024-04-25T15:42:45.568Z,50.74
2024-04-25T15:45:12.432Z,50.99
2024-04-25T15:47:39.070Z,50.98
2024-04-25T15:50:05.919Z,51.30
2024-04-25T15:52:35.146Z,50.08
2024-04-25T15:55:02.765Z,50.01
2024-04-25T15:57:29.337Z,49.71
2024-04-25T15:59:55.913Z,49.30
2024-04-25T16:02:23.062Z,49.20
2024-04-25T16:04:51.914Z,49.37
2024-04-25T16:07:18.874Z,49.75
2024-04-25T16:09:48.494Z,49.43
2024-04-25T16:12:15.065Z,49.79
2024-04-25T16:14:41.946Z,49.16
2024-04-25T16:17:08.732Z,49.03
2024-04-25T16:19:36.568Z,48.69
2024-04-25T16:22:03.229Z,49.21
2024-04-25T16:24:29.943Z,49.54
2024-04-25T16:26:56.517Z,49.24
2024-04-25T16:29:25.853Z,48.78
2024-04-25T16:31:53.596Z,48.65
2024-04-25T16:34:20.394Z,49.02
2024-04-25T16:36:46.939Z,49.23
2024-04-25T16:39:13.553Z,49.85
2024-04-25T16:41:40.117Z,49.66
2024-04-25T16:44:06.775Z,50.10
2024-04-25T16:46:33.464Z,49.59
2024-04-25T16:48:59.925Z,49.62
2024-04-25T16:51:29.722Z,50.02
2024-04-25T16:53:56.553Z,49.31
2024-04-25T16:56:23.056Z,49.15
2024-04-25T16:58:50.435Z,48.65
2024-04-25T17:01:17.813Z,49.17
2024-04-25T17:03:47.588Z,49.45
2024-04-25T17:06:14.879Z,49.26
2024-04-25T17:08:41.514Z,49.12
2024-04-25T17:11:17.354Z,49.38
2024-04-25T17:13:44.275Z,49.03
2024-04-25T17:16:10.918Z,49.56
2024-04-25T17:18:37.736Z,48.98
2024-04-25T17:21:07.555Z,49.76
2024-04-25T17:23:34.202Z,49.91
2024-04-25T17:26:01.914Z,49.59
2024-04-25T17:28:28.556Z,50.34
2024-04-25T17:30:55.052Z,50.14
2024-04-25T17:33:21.721Z,50.94
2024-04-25T17:35:48.512Z,50.99
2024-04-25T17:38:15.056Z,50.85
2024-04-25T17:40:41.778Z,50.77
2024-04-25T17:43:08.382Z,50.75
2024-04-25T17:45:34.908Z,50.71
2024-04-25T17:48:01.883Z,50.21
2024-04-25T17:50:28.650Z,50.79
2024-04-25T17:52:55.156Z,50.82
2024-04-25T17:55:21.694Z,51.47
2024-04-25T17:57:48.366Z,51.26
2024-04-25T18:00:16.403Z,51.98
2024-04-25T18:02:42.983Z,51.42
2024-04-25T18:05:10.559Z,51.42
2024-04-25T18:07:37.285Z,51.53
2024-04-25T18:10:04.313Z,51.45
2024-04-25T18:12:30.914Z,51.30
2024-04-25T18:14:57.411Z,51.15
2024-04-25T18:17:26.206Z,51.41
2024-04-25T18:19:53.692Z,51.49
2024-04-25T18:22:24.757Z,51.95
2024-04-25T18:24:51.833Z,51.80
2024-04-25T18:27:20.191Z,51.87
2024-04-25T18:29:47.017Z,51.79
2024-04-25T18:32:14.030Z,51.94
2024-04-25T18:34:41.167Z,51.87
2024-04-25T18:37:09.611Z,52.07
2024-04-25T18:39:36.462Z,51.85
2024-04-25T18:42:06.276Z,52.56
2024-04-25T18:44:36.784Z,52.71
2024-04-25T18:47:04.319Z,52.90
2024-04-25T18:49:35.491Z,53.32
2024-04-25T18:52:02.531Z,52.97
2024-04-25T18:54:29.242Z,52.94
2024-04-25T18:56:55.946Z,52.80
2024-04-25T18:59:23.221Z,53.18
2024-04-25T19:01:49.924Z,53.40
2024-04-25T19:04:21.137Z,53.65
2024-04-25T19:06:50.793Z,52.81
2024-04-25T19:09:21.453Z,53.09
2024-04-25T19:11:51.370Z,53.08
2024-04-25T19:14:18.102Z,53.41
2024-04-25T19:16:44.677Z,53.33
2024-04-25T19:19:12.093Z,53.83
2024-04-25T19:21:43.837Z,53.86
2024-04-25T19:24:10.918Z,54.05
2024-04-25T19:26:38.005Z,53.48
2024-04-25T19:29:04.766Z,53.79
2024-04-25T19:31:41.201Z,53.90
2024-04-25T19:34:08.514Z,53.91
2024-04-25T19:36:38.561Z,53.64
2024-04-25T19:39:05.727Z,53.70
2024-04-25T19:41:33.593Z,54.20
2024-04-25T19:44:00.145Z,53.98
2024-04-25T19:46:26.724Z,54.08
2024-04-25T19:48:53.330Z,54.13
2024-04-25T19:51:20.295Z,54.23
2024-04-25T19:53:47.099Z,54.80
2024-04-25T19:56:14.843Z,54.43
2024-04-25T19:58:46.350Z,54.50
2024-04-25T20:01:16.371Z,54.17
2024-04-25T20:03:43.892Z,54.32
2024-04-25T20:06:15.202Z,54.28
2024-04-25T20:08:41.786Z,54.59
2024-04-25T20:11:08.542Z,54.43
2024-04-25T20:13:35.239Z,54.61
2024-04-25T20:16:01.859Z,55.00
2024-04-25T20:18:48.092Z,55.16
2024-04-25T20:21:14.585Z,55.57
2024-04-25T20:23:44.621Z,56.11
2024-04-25T20:26:12.843Z,56.26
2024-04-25T20:28:41.346Z,56.99
2024-04-25T20:31:13.461Z,57.41
2024-04-25T20:33:40.023Z,57.31
2024-04-25T20:36:10.408Z,57.66
2024-04-25T20:38:37.661Z,57.99
2024-04-25T20:41:05.237Z,58.07
2024-04-25T20:43:31.697Z,58.01
2024-04-25T20:45:58.418Z,58.20
2024-04-25T20:48:24.995Z,57.83
2024-04-25T20:50:51.666Z,57.57
2024-04-25T20:53:18.427Z,57.42
2024-04-25T20:55:44.915Z,57.98
2024-04-25T20:58:12.073Z,58.20
2024-04-25T21:00:38.683Z,57.99
2024-04-25T21:03:05.659Z,58.27
2024-04-25T21:05:32.620Z,58.56
2024-04-25T21:07:59.145Z,58.62
2024-04-25T21:10:25.712Z,58.56
2024-04-25T21:12:52.640Z,59.09
2024-04-25T21:15:19.177Z,58.59
2024-04-25T21:17:45.773Z,58.60
2024-04-25T21:20:12.434Z,58.45
2024-04-25T21:22:42.107Z,58.96
2024-04-25T21:25:09.250Z,58.88
2024-04-25T21:27:35.765Z,58.88
2024-04-25T21:30:03.092Z,58.98
2024-04-25T21:32:36.608Z,59.15
2024-04-25T21:35:09.956Z,59.44
2024-04-25T21:37:36.520Z,59.42
2024-04-25T21:40:03.156Z,59.31
2024-04-25T21:42:29.675Z,59.13
2024-04-25T21:44:56.273Z,59.33
2024-04-25T21:47:22.893Z,59.48
2024-04-25T21:49:49.576Z,59.02
2024-04-25T21:52:16.079Z,58.68
2024-04-25T21:54:42.658Z,58.72
2024-04-25T21:57:13.710Z,58.61
2024-04-25T21:59:40.362Z,58.68
2024-04-25T22:02:06.924Z,58.30
2024-04-25T22:04:33.392Z,58.24
2024-04-25T22:07:00.038Z,58.39
2024-04-25T22:09:26.642Z,58.44
2024-04-25T22:11:53.305Z,58.54
2024-04-25T22:14:21.201Z,58.45
2024-04-25T22:16:48.100Z,58.20
2024-04-25T22:19:14.662Z,58.08
2024-04-25T22:21:47.440Z,58.29
2024-04-25T22:24:13.914Z,58.25
2024-04-25T22:26:40.473Z,58.21
2024-04-25T22:29:07.167Z,58.28
2024-04-25T22:31:33.835Z,58.20
2024-04-25T22:34:00.494Z,57.88
2024-04-25T22:36:27.219Z,58.20
2024-04-25T22:38:55.484Z,58.13
2024-04-25T22:41:22.232Z,58.12
2024-04-25T22:43:48.947Z,58.39
2024-04-25T22:46:15.560Z,58.52
2024-04-25T22:48:42.381Z,58.75
2024-04-25T22:51:09.370Z,58.54
2024-04-25T22:53:36.783Z,58.91
2024-04-25T22:56:03.670Z,58.58
2024-04-25T22:58:30.206Z,58.78
2024-04-25T23:00:56.757Z,58.86
2024-04-25T23:03:25.601Z,58.88
2024-04-25T23:05:54.018Z,58.96
2024-04-25T23:08:20.589Z,59.37
2024-04-25T23:10:47.063Z,59.65
2024-04-25T23:13:13.716Z,59.98
2024-04-25T23:15:40.231Z,59.54
2024-04-25T23:18:07.012Z,59.72
2024-04-25T23:20:33.748Z,59.62
2024-04-25T23:23:00.402Z,60.18
2024-04-25T23:25:26.864Z,59.97
2024-04-25T23:27:53.546Z,60.28
2024-04-25T23:30:20.738Z,60.29
2024-04-25T23:32:48.326Z,60.37
2024-04-25T23:35:15.126Z,60.35
2024-04-25T23:37:41.693Z,60.30
2024-04-25T23:40:08.388Z,60.65
2024-04-25T23:42:37.562Z,61.15
2024-04-25T23:45:05.396Z,60.85
2024-04-25T23:47:31.974Z,60.96
2024-04-25T23:49:58.644Z,61.00
2024-04-25T23:52:25.180Z,61.04
2024-04-25T23:54:51.740Z,60.98
2024-04-25T23:57:18.481Z,61.15
2024-04-25T23:59:45.100Z,61.09
